Dixon, Iowa
Current Conditions -  °F | °C
As of 1:52 AM on Monday 26 Jan 2015 (Local Time) from KDVN Reporting Station
Clear Clear  
Wind Chill: 11°   Ceiling: Unl
Heat Index: 11°   Visibility: 10mi
Dew Point:   Wind: 0mph
Humidity: 81%   Direction: NA
Pressure: 30.04"   Gusts: NA
Location:  41.74°N, 90.78°W
Report Text: KDVN 260752Z AUTO 00000KT 10SM CLR M12/M14 A3004 RMK AO2 SLP186 T11171144
Loading
Personal Weather Stations






























Interactive Weather Map New forecast layout! Learn more

10-Day Weather Forecast

Advertisements
Track Severe Weather on mobile